sensor_id;sensor_type;location;lat;lon;timestamp;pressure;altitude;pressure_sealevel;temperature;humidity
51452;BME280;37521;52.020;-1.740;2023-05-21T00:02:24;100757.59;;;4.56;100.00
51452;BME280;37521;52.020;-1.740;2023-05-21T00:04:56;100757.59;;;4.56;100.00
51452;BME280;37521;52.020;-1.740;2023-05-21T00:07:24;100760.19;;;4.54;100.00
51452;BME280;37521;52.020;-1.740;2023-05-21T00:09:53;100767.13;;;4.60;100.00
51452;BME280;37521;52.020;-1.740;2023-05-21T00:12:21;100765.44;;;4.53;100.00
51452;BME280;37521;52.020;-1.740;2023-05-21T00:14:50;100771.66;;;4.41;100.00
51452;BME280;37521;52.020;-1.740;2023-05-21T00:17:19;100771.78;;;4.27;100.00
51452;BME280;37521;52.020;-1.740;2023-05-21T00:19:48;100776.19;;;4.19;100.00
51452;BME280;37521;52.020;-1.740;2023-05-21T00:22:17;100756.22;;;4.15;100.00
51452;BME280;37521;52.020;-1.740;2023-05-21T00:24:46;100757.06;;;4.17;100.00
51452;BME280;37521;52.020;-1.740;2023-05-21T00:27:14;100761.44;;;4.14;100.00
51452;BME280;37521;52.020;-1.740;2023-05-21T00:29:43;100762.34;;;4.11;100.00
51452;BME280;37521;52.020;-1.740;2023-05-21T00:32:11;100765.81;;;4.10;100.00
51452;BME280;37521;52.020;-1.740;2023-05-21T00:34:41;100758.91;;;4.00;100.00
51452;BME280;37521;52.020;-1.740;2023-05-21T00:37:10;100750.25;;;3.93;100.00
51452;BME280;37521;52.020;-1.740;2023-05-21T00:39:41;100743.28;;;3.97;100.00
51452;BME280;37521;52.020;-1.740;2023-05-21T00:42:09;100753.69;;;4.00;100.00
51452;BME280;37521;52.020;-1.740;2023-05-21T00:44:38;100761.50;;;4.04;100.00
51452;BME280;37521;52.020;-1.740;2023-05-21T00:47:07;100750.16;;;4.07;100.00
51452;BME280;37521;52.020;-1.740;2023-05-21T00:49:35;100748.44;;;4.04;100.00
51452;BME280;37521;52.020;-1.740;2023-05-21T00:52:05;100746.78;;;3.93;100.00
51452;BME280;37521;52.020;-1.740;2023-05-21T00:54:34;100750.31;;;3.89;100.00
51452;BME280;37521;52.020;-1.740;2023-05-21T00:57:03;100739.84;;;3.92;100.00
51452;BME280;37521;52.020;-1.740;2023-05-21T00:59:32;100732.84;;;3.97;100.00
51452;BME280;37521;52.020;-1.740;2023-05-21T01:02:00;100734.53;;;4.02;100.00
51452;BME280;37521;52.020;-1.740;2023-05-21T01:04:31;100736.25;;;4.05;100.00
51452;BME280;37521;52.020;-1.740;2023-05-21T01:07:00;100729.28;;;4.04;100.00
51452;BME280;37521;52.020;-1.740;2023-05-21T01:09:30;100737.97;;;4.06;100.00
51452;BME280;37521;52.020;-1.740;2023-05-21T01:11:58;100743.25;;;4.03;100.00
51452;BME280;37521;52.020;-1.740;2023-05-21T01:14:27;100738.91;;;4.02;100.00
51452;BME280;37521;52.020;-1.740;2023-05-21T01:16:55;100729.28;;;4.01;100.00
51452;BME280;37521;52.020;-1.740;2023-05-21T01:19:24;100727.59;;;3.97;100.00
51452;BME280;37521;52.020;-1.740;2023-05-21T01:22:00;100725.06;;;3.89;100.00
51452;BME280;37521;52.020;-1.740;2023-05-21T01:24:33;100730.28;;;3.89;100.00
51452;BME280;37521;52.020;-1.740;2023-05-21T01:27:02;100725.97;;;3.83;100.00
51452;BME280;37521;52.020;-1.740;2023-05-21T01:29:33;100736.41;;;3.80;100.00
51452;BME280;37521;52.020;-1.740;2023-05-21T01:32:05;100732.13;;;3.72;100.00
51452;BME280;37521;52.020;-1.740;2023-05-21T01:34:41;100731.34;;;3.62;100.00
51452;BME280;37521;52.020;-1.740;2023-05-21T01:37:17;100729.63;;;3.58;100.00
51452;BME280;37521;52.020;-1.740;2023-05-21T01:39:52;100739.22;;;3.54;100.00
51452;BME280;37521;52.020;-1.740;2023-05-21T01:42:23;100737.47;;;3.53;100.00
51452;BME280;37521;52.020;-1.740;2023-05-21T01:44:54;100722.72;;;3.48;100.00
51452;BME280;37521;52.020;-1.740;2023-05-21T01:47:23;100722.72;;;3.45;100.00
51452;BME280;37521;52.020;-1.740;2023-05-21T01:49:54;100720.09;;;3.49;100.00
51452;BME280;37521;52.020;-1.740;2023-05-21T01:52:23;100721.84;;;3.49;100.00
51452;BME280;37521;52.020;-1.740;2023-05-21T01:54:55;100729.69;;;3.44;100.00
51452;BME280;37521;52.020;-1.740;2023-05-21T01:57:23;100725.38;;;3.42;100.00
51452;BME280;37521;52.020;-1.740;2023-05-21T01:59:52;100728.81;;;3.45;100.00
51452;BME280;37521;52.020;-1.740;2023-05-21T02:02:21;100728.81;;;3.45;100.00
51452;BME280;37521;52.020;-1.740;2023-05-21T02:04:49;100725.31;;;3.46;100.00
51452;BME280;37521;52.020;-1.740;2023-05-21T02:07:18;100734.91;;;3.49;100.00
51452;BME280;37521;52.020;-1.740;2023-05-21T02:09:46;100731.41;;;3.50;100.00
51452;BME280;37521;52.020;-1.740;2023-05-21T02:12:17;100727.06;;;3.50;100.00
51452;BME280;37521;52.020;-1.740;2023-05-21T02:14:46;100733.19;;;3.48;100.00
51452;BME280;37521;52.020;-1.740;2023-05-21T02:17:16;100723.66;;;3.33;100.00
51452;BME280;37521;52.020;-1.740;2023-05-21T02:19:44;100722.84;;;3.23;100.00
51452;BME280;37521;52.020;-1.740;2023-05-21T02:22:13;100724.63;;;3.18;100.00
51452;BME280;37521;52.020;-1.740;2023-05-21T02:24:41;100722.03;;;3.11;100.00
51452;BME280;37521;52.020;-1.740;2023-05-21T02:27:10;100725.50;;;3.11;100.00
51452;BME280;37521;52.020;-1.740;2023-05-21T02:29:41;100714.19;;;3.18;100.00
51452;BME280;37521;52.020;-1.740;2023-05-21T02:32:09;100723.75;;;3.16;100.00
51452;BME280;37521;52.020;-1.740;2023-05-21T02:34:38;100726.41;;;3.10;100.00
51452;BME280;37521;52.020;-1.740;2023-05-21T02:37:08;100726.38;;;3.13;100.00
51452;BME280;37521;52.020;-1.740;2023-05-21T02:39:36;100728.06;;;3.20;100.00
51452;BME280;37521;52.020;-1.740;2023-05-21T02:42:05;100723.72;;;3.25;100.00
51452;BME280;37521;52.020;-1.740;2023-05-21T02:44:33;100722.84;;;3.23;100.00
51452;BME280;37521;52.020;-1.740;2023-05-21T02:47:04;100725.47;;;3.23;100.00
51452;BME280;37521;52.020;-1.740;2023-05-21T02:49:32;100729.81;;;3.18;100.00
51452;BME280;37521;52.020;-1.740;2023-05-21T02:52:01;100725.47;;;3.19;100.00
51452;BME280;37521;52.020;-1.740;2023-05-21T02:54:29;100725.47;;;3.22;100.00
51452;BME280;37521;52.020;-1.740;2023-05-21T02:56:58;100729.84;;;3.21;100.00
51452;BME280;37521;52.020;-1.740;2023-05-21T02:59:27;100729.84;;;3.15;100.00
51452;BME280;37521;52.020;-1.740;2023-05-21T03:01:55;100722.06;;;3.08;100.00
51452;BME280;37521;52.020;-1.740;2023-05-21T03:04:25;100727.28;;;3.06;100.00
51452;BME280;37521;52.020;-1.740;2023-05-21T03:06:55;100729.03;;;2.99;100.00
51452;BME280;37521;52.020;-1.740;2023-05-21T03:09:24;100726.44;;;2.93;100.00
51452;BME280;37521;52.020;-1.740;2023-05-21T03:11:55;100722.09;;;2.94;100.00
51452;BME280;37521;52.020;-1.740;2023-05-21T03:14:24;100722.09;;;2.97;100.00
51452;BME280;37521;52.020;-1.740;2023-05-21T03:16:52;100721.25;;;2.92;100.00
51452;BME280;37521;52.020;-1.740;2023-05-21T03:19:21;100709.06;;;2.91;100.00
51452;BME280;37521;52.020;-1.740;2023-05-21T03:21:52;100714.28;;;2.91;100.00
51452;BME280;37521;52.020;-1.740;2023-05-21T03:24:22;100709.94;;;2.96;100.00
51452;BME280;37521;52.020;-1.740;2023-05-21T03:26:50;100714.25;;;3.00;100.00
51452;BME280;37521;52.020;-1.740;2023-05-21T03:29:19;100706.44;;;2.97;100.00
51452;BME280;37521;52.020;-1.740;2023-05-21T03:31:48;100703.84;;;2.92;100.00
51452;BME280;37521;52.020;-1.740;2023-05-21T03:34:17;100701.25;;;2.92;100.00
51452;BME280;37521;52.020;-1.740;2023-05-21T03:36:47;100706.44;;;2.94;100.00
51452;BME280;37521;52.020;-1.740;2023-05-21T03:39:19;100700.34;;;3.01;100.00
51452;BME280;37521;52.020;-1.740;2023-05-21T03:41:47;100714.25;;;3.05;100.00
51452;BME280;37521;52.020;-1.740;2023-05-21T03:44:23;100711.63;;;3.05;100.00
51452;BME280;37521;52.020;-1.740;2023-05-21T03:46:59;100709.88;;;3.08;100.00
51452;BME280;37521;52.020;-1.740;2023-05-21T03:49:31;100710.78;;;3.01;100.00
51452;BME280;37521;52.020;-1.740;2023-05-21T03:51:59;100703.00;;;2.87;100.00
51452;BME280;37521;52.020;-1.740;2023-05-21T03:54:29;100708.28;;;2.77;100.00
51452;BME280;37521;52.020;-1.740;2023-05-21T03:57:02;100712.63;;;2.75;100.00
51452;BME280;37521;52.020;-1.740;2023-05-21T03:59:32;100700.44;;;2.77;100.00
51452;BME280;37521;52.020;-1.740;2023-05-21T04:02:00;100693.50;;;2.76;100.00
51452;BME280;37521;52.020;-1.740;2023-05-21T04:04:29;100693.50;;;2.72;100.00
51452;BME280;37521;52.020;-1.740;2023-05-21T04:06:57;100692.59;;;2.80;100.00
51452;BME280;37521;52.020;-1.740;2023-05-21T04:09:26;100698.69;;;2.79;100.00
51452;BME280;37521;52.020;-1.740;2023-05-21T04:11:56;100695.22;;;2.72;100.00
51452;BME280;37521;52.020;-1.740;2023-05-21T04:14:24;100692.69;;;2.61;100.00
51452;BME280;37521;52.020;-1.740;2023-05-21T04:16:53;100691.81;;;2.53;100.00
51452;BME280;37521;52.020;-1.740;2023-05-21T04:19:21;100692.69;;;2.55;100.00
51452;BME280;37521;52.020;-1.740;2023-05-21T04:21:49;100696.13;;;2.59;100.00
51452;BME280;37521;52.020;-1.740;2023-05-21T04:24:18;100689.19;;;2.64;100.00
51452;BME280;37521;52.020;-1.740;2023-05-21T04:27:01;100688.31;;;2.63;100.00
51452;BME280;37521;52.020;-1.740;2023-05-21T04:29:30;100685.72;;;2.63;100.00
51452;BME280;37521;52.020;-1.740;2023-05-21T04:32:00;100682.25;;;2.61;100.00
51452;BME280;37521;52.020;-1.740;2023-05-21T04:34:28;100684.84;;;2.58;100.00
51452;BME280;37521;52.020;-1.740;2023-05-21T04:37:00;100692.69;;;2.55;100.00
51452;BME280;37521;52.020;-1.740;2023-05-21T04:39:29;100695.28;;;2.61;100.00
51452;BME280;37521;52.020;-1.740;2023-05-21T04:41:58;100696.13;;;2.65;100.00
51452;BME280;37521;52.020;-1.740;2023-05-21T04:44:29;100695.25;;;2.67;100.00
51452;BME280;37521;52.020;-1.740;2023-05-21T04:46:59;100694.38;;;2.67;100.00
51452;BME280;37521;52.020;-1.740;2023-05-21T04:49:28;100698.72;;;2.66;100.00
51452;BME280;37521;52.020;-1.740;2023-05-21T04:51:57;100689.16;;;2.71;100.00
51452;BME280;37521;52.020;-1.740;2023-05-21T04:54:25;100690.00;;;2.77;100.00
51452;BME280;37521;52.020;-1.740;2023-05-21T04:56:54;100679.56;;;2.73;100.00
51452;BME280;37521;52.020;-1.740;2023-05-21T04:59:24;100676.13;;;2.75;100.00
51452;BME280;37521;52.020;-1.740;2023-05-21T05:01:53;100677.81;;;2.80;100.00
51452;BME280;37521;52.020;-1.740;2023-05-21T05:04:22;100671.72;;;2.86;100.00
51452;BME280;37521;52.020;-1.740;2023-05-21T05:06:51;100676.88;;;2.93;100.00
51452;BME280;37521;52.020;-1.740;2023-05-21T05:09:20;100688.13;;;3.06;100.00
51452;BME280;37521;52.020;-1.740;2023-05-21T05:11:51;100681.13;;;3.14;100.00
51452;BME280;37521;52.020;-1.740;2023-05-21T05:14:20;100684.56;;;3.25;100.00
51452;BME280;37521;52.020;-1.740;2023-05-21T05:16:49;100677.53;;;3.34;100.00
51452;BME280;37521;52.020;-1.740;2023-05-21T05:19:19;100684.50;;;3.38;100.00
51452;BME280;37521;52.020;-1.740;2023-05-21T05:21:50;100687.91;;;3.46;100.00
51452;BME280;37521;52.020;-1.740;2023-05-21T05:24:19;100675.69;;;3.52;100.00
51452;BME280;37521;52.020;-1.740;2023-05-21T05:26:47;100684.31;;;3.65;100.00
51452;BME280;37521;52.020;-1.740;2023-05-21T05:29:16;100673.81;;;3.71;100.00
51452;BME280;37521;52.020;-1.740;2023-05-21T05:31:45;100681.59;;;3.79;100.00
51452;BME280;37521;52.020;-1.740;2023-05-21T05:34:14;100676.28;;;3.87;100.00
51452;BME280;37521;52.020;-1.740;2023-05-21T05:36:44;100667.53;;;3.94;100.00
51452;BME280;37521;52.020;-1.740;2023-05-21T05:39:12;100679.66;;;4.01;100.00
51452;BME280;37521;52.020;-1.740;2023-05-21T05:41:41;100683.97;;;4.08;100.00
51452;BME280;37521;52.020;-1.740;2023-05-21T05:44:09;100685.63;;;4.17;100.00
51452;BME280;37521;52.020;-1.740;2023-05-21T05:46:38;100682.97;;;4.23;100.00
51452;BME280;37521;52.020;-1.740;2023-05-21T05:49:07;100681.03;;;4.42;100.00
51452;BME280;37521;52.020;-1.740;2023-05-21T05:51:35;100690.56;;;4.46;100.00
51452;BME280;37521;52.020;-1.740;2023-05-21T05:54:05;100686.19;;;4.46;100.00
51452;BME280;37521;52.020;-1.740;2023-05-21T05:56:35;100677.41;;;4.53;100.00
51452;BME280;37521;52.020;-1.740;2023-05-21T05:59:04;100687.84;;;4.56;100.00
51452;BME280;37521;52.020;-1.740;2023-05-21T06:01:35;100680.81;;;4.61;100.00
51452;BME280;37521;52.020;-1.740;2023-05-21T06:04:05;100671.19;;;4.63;100.00
51452;BME280;37521;52.020;-1.740;2023-05-21T06:06:34;100677.19;;;4.72;100.00
51452;BME280;37521;52.020;-1.740;2023-05-21T06:09:02;100685.78;;;4.83;100.00
51452;BME280;37521;52.020;-1.740;2023-05-21T06:11:32;100681.22;;;4.99;100.00
51452;BME280;37521;52.020;-1.740;2023-05-21T06:14:01;100677.53;;;5.15;100.00
51452;BME280;37521;52.020;-1.740;2023-05-21T06:16:29;100686.09;;;5.26;100.00
51452;BME280;37521;52.020;-1.740;2023-05-21T06:18:58;100676.28;;;5.40;100.00
51452;BME280;37521;52.020;-1.740;2023-05-21T06:21:27;100676.16;;;5.50;100.00
51452;BME280;37521;52.020;-1.740;2023-05-21T06:23:55;100680.38;;;5.60;100.00
51452;BME280;37521;52.020;-1.740;2023-05-21T06:26:24;100689.84;;;5.68;100.00
51452;BME280;37521;52.020;-1.740;2023-05-21T06:28:54;100682.75;;;5.75;100.00
51452;BME280;37521;52.020;-1.740;2023-05-21T06:31:23;100691.38;;;5.82;100.00
51452;BME280;37521;52.020;-1.740;2023-05-21T06:33:51;100692.19;;;5.85;100.00
51452;BME280;37521;52.020;-1.740;2023-05-21T06:36:21;100688.59;;;5.94;100.00
51452;BME280;37521;52.020;-1.740;2023-05-21T06:38:52;100696.38;;;5.98;100.00
51452;BME280;37521;52.020;-1.740;2023-05-21T06:41:20;100701.47;;;6.08;100.00
51452;BME280;37521;52.020;-1.740;2023-05-21T06:43:56;100700.53;;;6.12;100.00
51452;BME280;37521;52.020;-1.740;2023-05-21T06:46:51;100698.72;;;6.17;100.00
51452;BME280;37521;52.020;-1.740;2023-05-21T06:49:19;100702.13;;;6.22;100.00
51452;BME280;37521;52.020;-1.740;2023-05-21T06:51:48;100709.00;;;6.29;100.00
51452;BME280;37521;52.020;-1.740;2023-05-21T06:54:16;100700.94;;;6.38;100.00
51452;BME280;37521;52.020;-1.740;2023-05-21T06:56:45;100699.94;;;6.45;100.00
51452;BME280;37521;52.020;-1.740;2023-05-21T06:59:15;100691.13;;;6.49;100.00
51452;BME280;37521;52.020;-1.740;2023-05-21T07:01:44;100698.00;;;6.57;100.00
51452;BME280;37521;52.020;-1.740;2023-05-21T07:04:13;100697.09;;;6.58;100.00
51452;BME280;37521;52.020;-1.740;2023-05-21T07:06:43;100694.47;;;6.58;100.00
51452;BME280;37521;52.020;-1.740;2023-05-21T07:09:11;100697.06;;;6.59;100.00
51452;BME280;37521;52.020;-1.740;2023-05-21T07:11:40;100700.38;;;6.69;100.00
51452;BME280;37521;52.020;-1.740;2023-05-21T07:14:09;100689.78;;;6.73;100.00
51452;BME280;37521;52.020;-1.740;2023-05-21T07:16:39;100690.59;;;6.77;100.00
51452;BME280;37521;52.020;-1.740;2023-05-21T07:19:07;100692.25;;;6.81;100.00
51452;BME280;37521;52.020;-1.740;2023-05-21T07:21:36;100688.72;;;6.83;100.00
51452;BME280;37521;52.020;-1.740;2023-05-21T07:24:06;100684.13;;;6.93;100.00
51452;BME280;37521;52.020;-1.740;2023-05-21T07:26:37;100680.47;;;7.00;100.00
51452;BME280;37521;52.020;-1.740;2023-05-21T07:29:08;100695.88;;;7.17;100.00
51452;BME280;37521;52.020;-1.740;2023-05-21T07:31:38;100700.16;;;7.23;100.00
51452;BME280;37521;52.020;-1.740;2023-05-21T07:34:07;100694.75;;;7.29;100.00
51452;BME280;37521;52.020;-1.740;2023-05-21T07:36:37;100701.66;;;7.33;100.00
51452;BME280;37521;52.020;-1.740;2023-05-21T07:39:06;100695.28;;;7.45;100.00
51452;BME280;37521;52.020;-1.740;2023-05-21T07:41:36;100696.41;;;7.72;100.00
51452;BME280;37521;52.020;-1.740;2023-05-21T07:44:07;100688.16;;;7.87;100.00
51452;BME280;37521;52.020;-1.740;2023-05-21T07:46:42;100694.22;;;7.90;100.00
51452;BME280;37521;52.020;-1.740;2023-05-21T07:49:11;100701.03;;;7.98;100.00
51452;BME280;37521;52.020;-1.740;2023-05-21T07:51:45;100695.34;;;8.14;100.00
51452;BME280;37521;52.020;-1.740;2023-05-21T07:54:14;100687.91;;;8.32;100.00
51452;BME280;37521;52.020;-1.740;2023-05-21T07:56:44;100685.75;;;8.48;100.00
51452;BME280;37521;52.020;-1.740;2023-05-21T07:59:25;100675.88;;;8.56;100.00
51452;BME280;37521;52.020;-1.740;2023-05-21T08:01:55;100678.31;;;8.63;100.00
51452;BME280;37521;52.020;-1.740;2023-05-21T08:04:24;100686.94;;;8.68;100.00
51452;BME280;37521;52.020;-1.740;2023-05-21T08:06:53;100684.09;;;8.76;100.00
51452;BME280;37521;52.020;-1.740;2023-05-21T08:09:22;100683.78;;;8.87;100.00
51452;BME280;37521;52.020;-1.740;2023-05-21T08:11:51;100679.88;;;9.00;100.00
51452;BME280;37521;52.020;-1.740;2023-05-21T08:14:20;100677.72;;;9.14;100.00
51452;BME280;37521;52.020;-1.740;2023-05-21T08:16:49;100679.84;;;9.31;100.00
51452;BME280;37521;52.020;-1.740;2023-05-21T08:19:19;100680.22;;;9.47;100.00
51452;BME280;37521;52.020;-1.740;2023-05-21T08:21:47;100676.41;;;9.57;100.00
51452;BME280;37521;52.020;-1.740;2023-05-21T08:24:20;100684.22;;;9.60;100.00
51452;BME280;37521;52.020;-1.740;2023-05-21T08:26:48;100678.19;;;9.57;100.00
51452;BME280;37521;52.020;-1.740;2023-05-21T08:29:17;100674.38;;;9.65;100.00
51452;BME280;37521;52.020;-1.740;2023-05-21T08:31:46;100679.34;;;9.74;100.00
51452;BME280;37521;52.020;-1.740;2023-05-21T08:34:15;100682.59;;;9.82;100.00
51452;BME280;37521;52.020;-1.740;2023-05-21T08:36:53;100680.41;;;9.97;100.00
51452;BME280;37521;52.020;-1.740;2023-05-21T08:39:42;100682.66;;;10.07;100.00
51452;BME280;37521;52.020;-1.740;2023-05-21T08:42:24;100677.09;;;10.17;100.00
51452;BME280;37521;52.020;-1.740;2023-05-21T08:45:04;100684.84;;;10.21;100.00
51452;BME280;37521;52.020;-1.740;2023-05-21T08:47:34;100679.09;;;10.36;100.00
51452;BME280;37521;52.020;-1.740;2023-05-21T08:50:07;100682.97;;;10.51;100.00
51452;BME280;37521;52.020;-1.740;2023-05-21T08:52:38;100678.00;;;10.67;100.00
51452;BME280;37521;52.020;-1.740;2023-05-21T08:55:07;100680.06;;;10.82;100.00
51452;BME280;37521;52.020;-1.740;2023-05-21T08:57:41;100669.34;;;10.87;100.00
51452;BME280;37521;52.020;-1.740;2023-05-21T09:00:13;100665.47;;;10.96;100.00
51452;BME280;37521;52.020;-1.740;2023-05-21T09:02:42;100667.81;;;11.05;100.00
51452;BME280;37521;52.020;-1.740;2023-05-21T09:05:14;100666.53;;;11.15;100.00
51452;BME280;37521;52.020;-1.740;2023-05-21T09:07:49;100666.91;;;11.28;100.00
51452;BME280;37521;52.020;-1.740;2023-05-21T09:10:55;100659.13;;;11.46;100.00
51452;BME280;37521;52.020;-1.740;2023-05-21T09:13:30;100671.97;;;11.56;100.00
51452;BME280;37521;52.020;-1.740;2023-05-21T09:16:08;100663.00;;;11.60;100.00
51452;BME280;37521;52.020;-1.740;2023-05-21T09:18:38;100659.50;;;11.59;100.00
51452;BME280;37521;52.020;-1.740;2023-05-21T09:21:23;100664.31;;;11.71;100.00
51452;BME280;37521;52.020;-1.740;2023-05-21T09:23:59;100668.00;;;11.89;100.00
51452;BME280;37521;52.020;-1.740;2023-05-21T09:26:32;100665.78;;;12.00;100.00
51452;BME280;37521;52.020;-1.740;2023-05-21T09:29:04;100665.59;;;12.05;100.00
51452;BME280;37521;52.020;-1.740;2023-05-21T09:31:32;100660.09;;;12.10;100.00
51452;BME280;37521;52.020;-1.740;2023-05-21T09:34:01;100662.69;;;12.11;100.00
51452;BME280;37521;52.020;-1.740;2023-05-21T09:36:31;100658.38;;;12.09;100.00
51452;BME280;37521;52.020;-1.740;2023-05-21T09:39:02;100655.88;;;12.26;100.00
51452;BME280;37521;52.020;-1.740;2023-05-21T09:41:31;100651.63;;;12.42;100.00
51452;BME280;37521;52.020;-1.740;2023-05-21T09:44:03;100647.13;;;12.65;100.00
51452;BME280;37521;52.020;-1.740;2023-05-21T09:46:37;100642.75;;;12.82;100.00
51452;BME280;37521;52.020;-1.740;2023-05-21T09:49:21;100649.59;;;12.88;100.00
51452;BME280;37521;52.020;-1.740;2023-05-21T09:51:54;100646.63;;;12.75;100.00
51452;BME280;37521;52.020;-1.740;2023-05-21T09:54:24;100653.63;;;12.58;100.00
51452;BME280;37521;52.020;-1.740;2023-05-21T09:56:59;100647.41;;;12.59;100.00
51452;BME280;37521;52.020;-1.740;2023-05-21T09:59:35;100651.22;;;12.72;100.00
51452;BME280;37521;52.020;-1.740;2023-05-21T10:02:18;100647.22;;;12.82;100.00
51452;BME280;37521;52.020;-1.740;2023-05-21T10:04:49;100640.66;;;12.70;100.00
51452;BME280;37521;52.020;-1.740;2023-05-21T10:07:21;100645.25;;;12.67;100.00
51452;BME280;37521;52.020;-1.740;2023-05-21T10:09:54;100650.03;;;12.59;100.00
51452;BME280;37521;52.020;-1.740;2023-05-21T10:12:24;100643.81;;;12.60;100.00
51452;BME280;37521;52.020;-1.740;2023-05-21T10:14:59;100638.13;;;12.88;100.00
51452;BME280;37521;52.020;-1.740;2023-05-21T10:17:28;100635.19;;;12.94;100.00
51452;BME280;37521;52.020;-1.740;2023-05-21T10:19:58;100633.78;;;13.05;100.00
51452;BME280;37521;52.020;-1.740;2023-05-21T10:22:27;100621.28;;;13.07;100.00
51452;BME280;37521;52.020;-1.740;2023-05-21T10:24:58;100623.25;;;13.04;100.00
51452;BME280;37521;52.020;-1.740;2023-05-21T10:27:30;100626.31;;;13.14;100.00
51452;BME280;37521;52.020;-1.740;2023-05-21T10:29:59;100628.13;;;13.32;100.00
51452;BME280;37521;52.020;-1.740;2023-05-21T10:32:27;100625.22;;;13.55;100.00
51452;BME280;37521;52.020;-1.740;2023-05-21T10:34:58;100623.91;;;13.64;100.00
51452;BME280;37521;52.020;-1.740;2023-05-21T10:37:28;100617.69;;;13.65;100.00
51452;BME280;37521;52.020;-1.740;2023-05-21T10:39:58;100625.84;;;13.60;100.00
51452;BME280;37521;52.020;-1.740;2023-05-21T10:45:42;100617.06;;;13.41;100.00
51452;BME280;37521;52.020;-1.740;2023-05-21T10:48:36;100622.47;;;13.57;100.00
51452;BME280;37521;52.020;-1.740;2023-05-21T10:51:19;100606.22;;;13.99;100.00
51452;BME280;37521;52.020;-1.740;2023-05-21T10:54:12;100600.41;;;14.43;100.00
51452;BME280;37521;52.020;-1.740;2023-05-21T10:56:55;100615.38;;;14.79;100.00
51452;BME280;37521;52.020;-1.740;2023-05-21T10:59:35;100606.44;;;14.80;100.00
51452;BME280;37521;52.020;-1.740;2023-05-21T11:02:08;100604.53;;;14.66;100.00
51452;BME280;37521;52.020;-1.740;2023-05-21T11:04:40;100604.91;;;14.25;100.00
51452;BME280;37521;52.020;-1.740;2023-05-21T11:07:11;100605.34;;;14.16;100.00
51452;BME280;37521;52.020;-1.740;2023-05-21T11:09:40;100596.03;;;14.42;100.00
51452;BME280;37521;52.020;-1.740;2023-05-21T11:12:09;100594.97;;;14.95;96.50
51452;BME280;37521;52.020;-1.740;2023-05-21T11:14:39;100590.63;;;15.25;98.63
51452;BME280;37521;52.020;-1.740;2023-05-21T11:17:10;100592.06;;;15.15;97.85
51452;BME280;37521;52.020;-1.740;2023-05-21T11:19:41;100578.84;;;15.14;95.89
51452;BME280;37521;52.020;-1.740;2023-05-21T11:22:21;100586.22;;;15.09;100.00
51452;BME280;37521;52.020;-1.740;2023-05-21T11:24:51;100584.34;;;14.95;100.00
51452;BME280;37521;52.020;-1.740;2023-05-21T11:27:31;100580.13;;;15.22;98.69
51452;BME280;37521;52.020;-1.740;2023-05-21T11:30:03;100575.06;;;15.34;95.84
51452;BME280;37521;52.020;-1.740;2023-05-21T11:32:36;100573.94;;;15.53;95.83
51452;BME280;37521;52.020;-1.740;2023-05-21T11:35:06;100574.97;;;15.67;90.18
51452;BME280;37521;52.020;-1.740;2023-05-21T11:37:35;100572.09;;;15.70;86.15
51452;BME280;37521;52.020;-1.740;2023-05-21T11:40:21;100562.16;;;15.73;87.08
51452;BME280;37521;52.020;-1.740;2023-05-21T11:43:00;100569.41;;;15.86;88.73
51452;BME280;37521;52.020;-1.740;2023-05-21T11:45:31;100561.13;;;15.90;94.64
51452;BME280;37521;52.020;-1.740;2023-05-21T11:48:00;100568.09;;;15.93;95.42
51452;BME280;37521;52.020;-1.740;2023-05-21T11:50:30;100570.44;;;16.13;95.11
51452;BME280;37521;52.020;-1.740;2023-05-21T11:53:00;100565.63;;;16.04;87.51
51452;BME280;37521;52.020;-1.740;2023-05-21T11:55:28;100559.38;;;16.05;84.71
51452;BME280;37521;52.020;-1.740;2023-05-21T11:57:58;100556.25;;;16.13;89.99
51452;BME280;37521;52.020;-1.740;2023-05-21T12:00:28;100557.09;;;15.99;86.83
51452;BME280;37521;52.020;-1.740;2023-05-21T12:02:56;100558.97;;;15.97;89.41
51452;BME280;37521;52.020;-1.740;2023-05-21T12:05:25;100556.03;;;16.01;90.77
51452;BME280;37521;52.020;-1.740;2023-05-21T12:07:54;100551.94;;;15.96;91.74
51452;BME280;37521;52.020;-1.740;2023-05-21T12:10:24;100553.28;;;16.03;91.30
51452;BME280;37521;52.020;-1.740;2023-05-21T12:12:52;100541.88;;;16.15;90.87
51452;BME280;37521;52.020;-1.740;2023-05-21T12:15:25;100545.66;;;16.11;85.26
51452;BME280;37521;52.020;-1.740;2023-05-21T12:17:55;100548.44;;;16.10;82.02
51452;BME280;37521;52.020;-1.740;2023-05-21T12:20:27;100545.94;;;15.92;80.37
51452;BME280;37521;52.020;-1.740;2023-05-21T12:22:56;100548.50;;;15.94;84.04
51452;BME280;37521;52.020;-1.740;2023-05-21T12:25:27;100538.22;;;15.88;84.59
51452;BME280;37521;52.020;-1.740;2023-05-21T12:27:56;100538.25;;;16.02;91.29
51452;BME280;37521;52.020;-1.740;2023-05-21T12:30:27;100534.03;;;15.98;89.09
51452;BME280;37521;52.020;-1.740;2023-05-21T12:32:58;100544.50;;;15.41;88.05
51452;BME280;37521;52.020;-1.740;2023-05-21T12:35:29;100542.75;;;14.94;90.63
51452;BME280;37521;52.020;-1.740;2023-05-21T12:37:59;100536.13;;;15.01;90.22
51452;BME280;37521;52.020;-1.740;2023-05-21T12:40:34;100532.94;;;15.56;94.79
51452;BME280;37521;52.020;-1.740;2023-05-21T12:43:05;100531.94;;;15.89;89.67
51452;BME280;37521;52.020;-1.740;2023-05-21T12:45:33;100525.66;;;15.60;86.38
51452;BME280;37521;52.020;-1.740;2023-05-21T12:48:07;100529.88;;;15.48;84.37
51452;BME280;37521;52.020;-1.740;2023-05-21T12:50:38;100542.53;;;15.29;90.99
51452;BME280;37521;52.020;-1.740;2023-05-21T12:53:08;100553.91;;;14.85;91.86
51452;BME280;37521;52.020;-1.740;2023-05-21T12:55:38;100528.84;;;15.66;92.76
51452;BME280;37521;52.020;-1.740;2023-05-21T12:58:07;100529.13;;;15.92;84.76
51452;BME280;37521;52.020;-1.740;2023-05-21T13:00:35;100526.47;;;16.06;83.00